Time;durP1;ratioP1;P1;durP2;ratioP2;P2;SDS_P1;SDS_P2;PMS_P1;PMS_P2;Temp;Humidity;BMP_temperature;BMP_pressure;BME280_temperature;BME280_humidity;BME280_pressure;Samples;Min_cycle;Max_cycle;Signal;HPM_P1;HPM_P2
2022/03/29 00:00:00;;;;;;;30.88;16.30;;;;;;;7.53;75.23;101602.34;5131884;27;20036;-67
2022/03/29 00:02:28;;;;;;;29.30;16.17;;;;;;;7.48;75.63;101596.25;5129307;27;20039;-67
2022/03/29 00:04:57;;;;;;;31.17;16.52;;;;;;;7.44;75.41;101598.88;5121661;27;20843;-67
2022/03/29 00:07:24;;;;;;;34.80;17.15;;;;;;;7.42;75.83;101597.16;5129287;27;20127;-68
2022/03/29 00:09:51;;;;;;;33.00;17.75;;;;;;;7.40;75.83;101593.66;5126127;27;20055;-68
2022/03/29 00:12:18;;;;;;;35.58;18.23;;;;;;;7.37;76.02;101594.56;5127435;27;20043;-68
2022/03/29 00:14:45;;;;;;;34.53;18.23;;;;;;;7.35;75.96;101587.56;5127026;27;20044;-68
2022/03/29 00:17:12;;;;;;;35.40;18.27;;;;;;;7.30;75.97;101587.56;5128261;27;20114;-69
2022/03/29 00:19:39;;;;;;;34.63;18.20;;;;;;;7.27;76.12;101592.84;5130146;27;20561;-68
2022/03/29 00:22:06;;;;;;;31.63;17.67;;;;;;;7.23;76.63;101583.25;5133566;27;20062;-67
2022/03/29 00:24:33;;;;;;;30.45;18.13;;;;;;;7.21;76.51;101582.38;5135352;27;20047;-66
2022/03/29 00:27:00;;;;;;;31.27;17.90;;;;;;;7.15;76.38;101584.16;5129313;27;20458;-66
2022/03/29 00:29:27;;;;;;;35.50;19.45;;;;;;;7.11;76.79;101566.69;5130831;27;20489;-68
2022/03/29 00:31:55;;;;;;;33.67;18.58;;;;;;;7.08;76.65;101565.84;5124427;27;20051;-67
2022/03/29 00:34:22;;;;;;;31.77;17.58;;;;;;;7.05;76.61;101571.06;5121547;27;20109;-68
2022/03/29 00:36:49;;;;;;;36.17;18.33;;;;;;;7.01;76.58;101564.97;5128199;27;20052;-68
2022/03/29 00:39:19;;;;;;;35.30;19.02;;;;;;;6.96;76.85;101566.75;5130085;27;20032;-68
2022/03/29 00:41:47;;;;;;;35.25;19.45;;;;;;;6.92;76.96;101560.63;5132094;27;20519;-66
2022/03/29 00:44:16;;;;;;;35.35;19.33;;;;;;;6.90;77.38;101564.16;5132995;27;20055;-66
2022/03/29 00:46:43;;;;;;;35.78;19.63;;;;;;;6.84;76.97;101555.44;5129236;27;20035;-66
2022/03/29 00:49:10;;;;;;;37.25;20.00;;;;;;;6.82;77.88;101559.81;5130380;27;20109;-67
2022/03/29 00:51:38;;;;;;;34.88;19.55;;;;;;;6.79;77.44;101559.81;5131284;27;20527;-66
2022/03/29 00:54:06;;;;;;;38.80;19.90;;;;;;;6.76;77.89;101561.56;5130307;27;20051;-66
2022/03/29 00:56:33;;;;;;;42.60;20.02;;;;;;;6.75;78.65;101558.09;5126653;27;20094;-67
2022/03/29 00:59:03;;;;;;;36.55;20.17;;;;;;;6.73;78.49;101549.34;5127314;27;20028;-67
2022/03/29 01:01:31;;;;;;;35.63;20.13;;;;;;;6.70;78.61;101545.88;5129810;27;20050;-66
2022/03/29 01:03:59;;;;;;;37.97;21.33;;;;;;;6.67;78.94;101549.34;5130330;27;20044;-66
2022/03/29 01:06:26;;;;;;;37.28;20.48;;;;;;;6.61;78.88;101544.16;5132046;27;20055;-66
2022/03/29 01:08:54;;;;;;;40.10;21.10;;;;;;;6.60;78.71;101550.25;5130203;27;20509;-66
2022/03/29 01:11:21;;;;;;;44.10;22.27;;;;;;;6.55;78.89;101534.53;5128716;27;20039;-67
2022/03/29 01:13:48;;;;;;;38.30;21.52;;;;;;;6.49;79.11;101538.06;5132380;27;20043;-66
2022/03/29 01:19:18;;;;;;;42.33;22.17;;;;;;;6.44;79.77;101526.72;5087443;27;20089;-66
2022/03/29 01:21:58;;;;;;;41.10;21.38;;;;;;;6.40;80.19;101524.13;5133450;27;20036;-65
2022/03/29 01:24:27;;;;;;;41.50;21.98;;;;;;;6.36;80.20;101518.88;5116490;27;20036;-65
2022/03/29 01:27:00;;;;;;;41.92;21.83;;;;;;;6.32;80.20;101517.13;5128387;27;20028;-67
2022/03/29 01:29:32;;;;;;;43.58;23.33;;;;;;;6.30;80.26;101518.00;5129582;27;20226;-66
2022/03/29 01:32:08;;;;;;;41.72;22.65;;;;;;;6.26;80.44;101518.91;5124026;27;20505;-66
2022/03/29 01:34:40;;;;;;;41.40;22.48;;;;;;;6.22;80.55;101520.63;5129057;27;20066;-66
2022/03/29 01:37:08;;;;;;;43.42;23.25;;;;;;;6.16;80.61;101518.91;5113923;27;20035;-66
2022/03/29 01:39:37;;;;;;;45.58;23.58;;;;;;;6.14;80.77;101511.91;5116878;27;20125;-66
2022/03/29 01:42:06;;;;;;;43.53;23.40;;;;;;;6.10;80.67;101515.44;5113325;27;20040;-65
2022/03/29 01:44:33;;;;;;;47.20;24.35;;;;;;;6.06;80.86;101514.53;5122082;27;20047;-67
2022/03/29 01:47:00;;;;;;;45.50;23.88;;;;;;;6.02;80.68;101518.91;5116932;27;20044;-68
2022/03/29 01:49:27;;;;;;;47.67;24.08;;;;;;;5.98;80.50;101509.31;5129405;27;20485;-68
2022/03/29 01:51:56;;;;;;;45.38;25.00;;;;;;;5.95;80.73;101505.81;5112968;27;20051;-68
2022/03/29 01:54:24;;;;;;;46.78;24.38;;;;;;;5.94;81.04;101506.69;5115968;27;20040;-67
2022/03/29 01:56:52;;;;;;;48.45;25.42;;;;;;;5.90;80.96;101508.44;5115519;27;20502;-67
2022/03/29 01:59:20;;;;;;;45.42;24.13;;;;;;;5.87;81.55;101501.44;5128272;27;20051;-67
2022/03/29 02:01:50;;;;;;;45.30;25.30;;;;;;;5.84;81.65;101504.06;5131469;27;20048;-68
2022/03/29 02:04:17;;;;;;;45.70;25.65;;;;;;;5.83;81.53;101502.31;5118340;27;20497;-68
2022/03/29 02:06:44;;;;;;;49.40;26.10;;;;;;;5.81;81.48;101498.81;5130784;27;20483;-67
2022/03/29 02:09:11;;;;;;;46.13;25.10;;;;;;;5.79;81.62;101494.47;5129076;27;20032;-66
2022/03/29 02:11:41;;;;;;;50.08;25.85;;;;;;;5.77;81.82;101488.38;5127612;27;20520;-68
2022/03/29 02:14:09;;;;;;;49.10;25.33;;;;;;;5.73;81.89;101490.97;5122942;27;20040;-66
2022/03/29 02:16:36;;;;;;;48.22;25.83;;;;;;;5.71;81.77;101486.63;5124115;27;20032;-66
2022/03/29 02:19:03;;;;;;;45.67;26.00;;;;;;;5.68;81.99;101482.25;5131549;27;20493;-67
2022/03/29 02:21:31;;;;;;;51.60;26.98;;;;;;;5.66;81.96;101488.34;5131554;27;20501;-67
2022/03/29 02:23:58;;;;;;;46.85;24.70;;;;;;;5.62;82.40;101486.63;5126402;27;20066;-67
2022/03/29 02:26:25;;;;;;;49.40;27.50;;;;;;;5.58;82.52;101483.13;5119245;27;20529;-65
2022/03/29 02:28:52;;;;;;;50.30;25.60;;;;;;;5.56;82.57;101474.41;5121663;27;20044;-66
2022/03/29 02:31:19;;;;;;;51.45;26.58;;;;;;;5.50;82.41;101472.66;5127390;27;20048;-66
2022/03/29 02:33:46;;;;;;;47.05;26.25;;;;;;;5.45;82.58;101466.53;5116757;27;20806;-66
2022/03/29 02:36:15;;;;;;;47.22;26.52;;;;;;;5.42;82.79;101458.69;5127767;27;20048;-66
2022/03/29 02:38:42;;;;;;;47.67;26.67;;;;;;;5.37;82.79;101457.81;5128028;27;20036;-65
2022/03/29 02:41:09;;;;;;;52.50;27.83;;;;;;;5.32;82.53;101454.34;5120912;27;20043;-66
2022/03/29 02:43:36;;;;;;;54.35;28.50;;;;;;;5.29;83.29;101456.06;5121694;27;20068;-67
2022/03/29 02:46:04;;;;;;;52.20;27.30;;;;;;;5.24;83.23;101452.56;5129696;27;20416;-68
2022/03/29 02:48:31;;;;;;;50.13;26.02;;;;;;;5.21;83.22;101455.19;5131667;27;20147;-68
2022/03/29 02:50:58;;;;;;;55.95;28.13;;;;;;;5.17;83.40;101442.13;5130959;27;20435;-68
2022/03/29 02:53:25;;;;;;;57.10;29.38;;;;;;;5.14;83.09;101440.34;5123890;27;20041;-68
2022/03/29 02:55:52;;;;;;;55.38;28.45;;;;;;;5.10;83.40;101439.47;5126391;27;20761;-67
2022/03/29 02:58:20;;;;;;;53.83;27.77;;;;;;;5.08;83.21;101437.72;5128953;27;20040;-68
2022/03/29 03:00:47;;;;;;;51.50;28.05;;;;;;;5.08;83.66;101430.78;5131164;27;20044;-68
2022/03/29 03:03:15;;;;;;;56.17;29.33;;;;;;;5.09;83.63;101429.88;5126599;27;20694;-68
2022/03/29 03:05:43;;;;;;;53.58;28.27;;;;;;;5.10;83.85;101430.78;5117564;27;20040;-68
2022/03/29 03:08:10;;;;;;;56.40;29.85;;;;;;;5.11;83.94;101428.16;5121363;27;20092;-68
2022/03/29 03:10:37;;;;;;;58.03;29.42;;;;;;;5.13;84.11;101431.63;5129196;27;20089;-68
2022/03/29 03:13:05;;;;;;;58.45;29.30;;;;;;;5.15;84.13;101420.31;5128250;27;20039;-68
2022/03/29 03:15:39;;;;;;;60.80;30.38;;;;;;;5.16;84.01;101422.06;5134137;27;20067;-68
2022/03/29 03:18:06;;;;;;;62.50;31.15;;;;;;;5.17;83.84;101422.06;5133455;27;20416;-68
2022/03/29 03:20:33;;;;;;;62.65;30.58;;;;;;;5.22;84.10;101422.06;5132687;27;20066;-68
2022/03/29 03:23:02;;;;;;;67.40;31.30;;;;;;;5.27;84.53;101425.56;5133689;27;20047;-67
2022/03/29 03:25:29;;;;;;;63.38;30.88;;;;;;;5.29;84.47;101422.06;5130087;27;20032;-67
2022/03/29 03:27:58;;;;;;;62.45;31.95;;;;;;;5.32;84.47;101415.13;5124587;27;20055;-67
2022/03/29 03:30:27;;;;;;;66.90;32.17;;;;;;;5.34;84.39;101410.75;5132330;27;20063;-67
2022/03/29 03:32:54;;;;;;;68.35;32.28;;;;;;;5.35;84.67;101409.88;5133264;27;20042;-65
2022/03/29 03:35:24;;;;;;;71.68;33.97;;;;;;;5.37;84.52;101406.41;5131984;27;20048;-67
2022/03/29 03:37:51;;;;;;;74.68;33.38;;;;;;;5.39;84.48;101404.63;5120345;27;20466;-66
2022/03/29 03:40:18;;;;;;;76.00;33.22;;;;;;;5.42;84.28;101406.41;5121988;27;20035;-66
2022/03/29 03:42:45;;;;;;;74.13;32.67;;;;;;;5.42;84.47;101403.78;5132016;27;20044;-66
2022/03/29 03:45:12;;;;;;;72.78;34.35;;;;;;;5.41;84.06;101408.13;5119167;27;20047;-66
2022/03/29 03:47:40;;;;;;;65.88;33.55;;;;;;;5.44;84.67;101402.06;5132797;27;20043;-66
2022/03/29 03:50:09;;;;;;;71.38;32.15;;;;;;;5.43;84.89;101401.16;5133718;27;20552;-66
2022/03/29 03:52:38;;;;;;;66.90;33.10;;;;;;;5.45;84.46;101401.16;5132877;27;20079;-66
2022/03/29 03:55:08;;;;;;;68.60;34.17;;;;;;;5.50;84.24;101399.44;5133205;27;20043;-66
2022/03/29 03:57:35;;;;;;;68.40;32.58;;;;;;;5.53;84.44;101396.81;5132965;27;20036;-67
2022/03/29 04:00:05;;;;;;;72.93;32.50;;;;;;;5.56;84.58;101390.69;5132029;27;20469;-67
2022/03/29 04:02:39;;;;;;;71.13;32.05;;;;;;;5.57;84.77;101392.44;5133156;27;20128;-67
2022/03/29 04:05:12;;;;;;;69.45;32.15;;;;;;;5.52;84.95;101388.94;5130403;27;20886;-67
2022/03/29 04:07:41;;;;;;;80.10;32.03;;;;;;;5.49;84.98;101381.97;5129352;27;20048;-65
2022/03/29 04:10:10;;;;;;;77.22;33.47;;;;;;;5.47;84.78;101377.63;5133465;27;20036;-65
2022/03/29 04:12:37;;;;;;;89.40;31.25;;;;;;;5.44;85.24;101371.53;5126479;27;20529;-65
2022/03/29 04:15:06;;;;;;;80.38;33.05;;;;;;;5.43;85.55;101375.00;5123186;27;20051;-66
2022/03/29 04:17:33;;;;;;;99.05;32.42;;;;;;;5.43;85.32;101376.78;5118695;27;20486;-65
2022/03/29 04:20:01;;;;;;;68.35;30.70;;;;;;;5.42;85.86;101377.63;5127589;27;20070;-67
2022/03/29 04:22:28;;;;;;;85.70;32.70;;;;;;;5.40;85.90;101377.63;5146336;27;20044;-68
2022/03/29 04:24:55;;;;;;;72.28;31.58;;;;;;;5.39;86.05;101367.16;5130981;27;20115;-66
2022/03/29 04:27:23;;;;;;;66.32;28.55;;;;;;;5.37;86.24;101367.19;5132666;27;20048;-66
2022/03/29 04:29:50;;;;;;;74.85;30.88;;;;;;;5.35;86.44;101358.47;5131625;27;20221;-67
2022/03/29 04:32:17;;;;;;;65.38;30.58;;;;;;;5.36;86.17;101356.69;5124467;27;20124;-67
2022/03/29 04:34:46;;;;;;;72.15;31.20;;;;;;;5.37;86.46;101355.84;5121161;27;20048;-67
2022/03/29 04:37:13;;;;;;;63.20;29.33;;;;;;;5.37;86.21;101348.88;5122082;27;20050;-67
2022/03/29 04:39:40;;;;;;;108.53;30.02;;;;;;;5.35;86.35;101347.13;5124617;27;20028;-68
2022/03/29 04:42:08;;;;;;;68.47;30.92;;;;;;;5.32;86.49;101347.13;5131902;27;20036;-67
2022/03/29 04:44:36;;;;;;;103.75;30.27;;;;;;;5.29;86.67;101345.41;5130704;27;20045;-67
2022/03/29 04:47:04;;;;;;;79.75;30.85;;;;;;;5.25;86.72;101343.66;5123084;27;20032;-66
2022/03/29 04:49:31;;;;;;;113.20;31.48;;;;;;;5.26;86.74;101346.25;5130762;27;20489;-67
2022/03/29 04:51:59;;;;;;;103.97;31.92;;;;;;;5.26;86.78;101348.88;5120649;27;20040;-67
2022/03/29 04:54:27;;;;;;;97.95;30.75;;;;;;;5.28;86.82;101348.88;5129915;27;20047;-66
2022/03/29 04:56:55;;;;;;;91.75;32.03;;;;;;;5.28;86.84;101347.13;5122158;27;20031;-66
2022/03/29 04:59:22;;;;;;;84.90;33.20;;;;;;;5.28;86.75;101348.88;5122215;27;20100;-66
2022/03/29 05:01:50;;;;;;;79.82;31.67;;;;;;;5.30;86.92;101357.56;5117305;27;20033;-66
2022/03/29 05:04:17;;;;;;;85.68;28.23;;;;;;;5.31;87.58;101353.22;5125345;27;20612;-65
2022/03/29 05:06:44;;;;;;;116.60;27.90;;;;;;;5.48;88.52;101353.22;5119399;27;20036;-64
2022/03/29 05:09:12;;;;;;;116.55;29.60;;;;;;;5.57;88.42;101348.00;5123750;27;20036;-65
2022/03/29 05:11:39;;;;;;;83.45;27.15;;;;;;;5.58;87.98;101342.75;5121659;27;20086;-65
2022/03/29 05:14:06;;;;;;;65.18;29.95;;;;;;;5.64;87.62;101339.25;5131366;27;20039;-65
2022/03/29 05:16:41;;;;;;;79.85;27.85;;;;;;;5.63;87.07;101339.25;5128742;27;20044;-65
2022/03/29 05:19:09;;;;;;;79.90;29.70;;;;;;;5.59;86.80;101339.25;5127503;27;20046;-65
2022/03/29 05:21:36;;;;;;;83.30;28.48;;;;;;;5.56;86.55;101335.78;5125442;27;20761;-65
2022/03/29 05:24:03;;;;;;;104.68;29.73;;;;;;;5.52;86.77;101328.78;5130319;27;20040;-64
2022/03/29 05:26:30;;;;;;;104.97;30.30;;;;;;;5.49;86.62;101334.06;5129161;27;20135;-64
2022/03/29 05:28:57;;;;;;;111.75;28.77;;;;;;;5.49;86.31;101337.53;5116050;27;20040;-64
2022/03/29 05:31:25;;;;;;;99.40;29.05;;;;;;;5.50;86.53;101335.75;5113622;27;20051;-65
2022/03/29 05:33:52;;;;;;;153.18;28.67;;;;;;;5.48;86.52;101338.41;5131102;27;20060;-65
2022/03/29 05:36:19;;;;;;;93.35;30.60;;;;;;;5.46;86.12;101341.88;5133757;27;20031;-65
2022/03/29 05:38:51;;;;;;;100.50;29.70;;;;;;;5.41;86.22;101340.13;5130483;27;20040;-66
2022/03/29 05:41:20;;;;;;;106.63;29.00;;;;;;;5.39;86.27;101343.63;5116243;27;20044;-65
2022/03/29 05:43:48;;;;;;;73.05;27.48;;;;;;;5.36;86.53;101338.41;5116953;27;20127;-65
2022/03/29 05:49:04;;;;;;;88.72;28.17;;;;;;;5.33;86.52;101341.03;5126672;27;20118;-65
2022/03/29 05:51:32;;;;;;;119.28;28.48;;;;;;;5.32;86.59;101339.28;5114302;27;20434;-65
2022/03/29 05:54:01;;;;;;;81.03;29.35;;;;;;;5.33;86.72;101339.28;5112332;27;20047;-65
2022/03/29 05:56:28;;;;;;;64.65;27.92;;;;;;;5.37;86.74;101342.75;5121462;27;20493;-65
2022/03/29 05:58:55;;;;;;;69.13;28.10;;;;;;;5.41;86.51;101341.91;5124198;27;20114;-65
2022/03/29 06:01:22;;;;;;;80.03;30.85;;;;;;;5.47;86.38;101338.41;5115154;27;20042;-65
2022/03/29 06:03:50;;;;;;;73.53;28.67;;;;;;;5.48;86.11;101342.78;5115844;27;20055;-65
2022/03/29 06:06:17;;;;;;;85.70;31.48;;;;;;;5.50;86.35;101343.63;5121986;27;20533;-65
2022/03/29 06:08:44;;;;;;;85.40;30.38;;;;;;;5.52;86.30;101344.50;5124640;27;20517;-65
2022/03/29 06:11:12;;;;;;;65.03;27.75;;;;;;;5.53;86.31;101346.22;5132816;27;20036;-65
2022/03/29 06:13:40;;;;;;;79.85;29.05;;;;;;;5.58;86.33;101344.50;5122299;27;20093;-65
2022/03/29 06:16:08;;;;;;;77.85;29.63;;;;;;;5.62;86.50;101346.22;5121225;27;20047;-66
2022/03/29 06:18:36;;;;;;;69.95;29.75;;;;;;;5.67;86.26;101346.22;5112285;28;20052;-65
2022/03/29 06:21:04;;;;;;;88.82;29.70;;;;;;;5.70;86.05;101339.22;5113502;27;20127;-66
2022/03/29 06:23:31;;;;;;;62.60;28.00;;;;;;;5.75;85.90;101339.22;5127319;27;20106;-65
2022/03/29 06:25:58;;;;;;;79.07;28.38;;;;;;;5.78;85.83;101336.59;5129684;27;20042;-65
2022/03/29 06:28:25;;;;;;;86.82;27.00;;;;;;;5.81;85.58;101333.97;5117331;27;20547;-65
2022/03/29 06:30:53;;;;;;;64.22;28.33;;;;;;;5.79;85.43;101340.97;5117954;27;20053;-66
2022/03/29 06:33:20;;;;;;;110.25;28.58;;;;;;;5.82;85.25;101334.84;5112027;28;20465;-68
2022/03/29 06:35:48;;;;;;;67.72;27.35;;;;;;;5.84;85.26;101346.19;5110804;27;20052;-66
2022/03/29 06:38:20;;;;;;;82.30;27.75;;;;;;;5.85;85.40;101347.91;5111882;27;20113;-65
2022/03/29 06:40:49;;;;;;;78.43;27.45;;;;;;;5.84;85.02;101346.19;5131847;27;20044;-65
2022/03/29 06:43:16;;;;;;;67.13;26.20;;;;;;;5.79;85.07;101351.41;5131154;27;20042;-66
2022/03/29 06:45:44;;;;;;;90.57;27.77;;;;;;;5.77;85.17;101344.47;5118828;27;20035;-65
2022/03/29 06:48:12;;;;;;;77.32;28.02;;;;;;;5.75;85.14;101349.66;5134204;27;20032;-65
2022/03/29 06:50:40;;;;;;;63.13;27.70;;;;;;;5.75;85.35;101349.66;5134661;27;20056;-65
2022/03/29 06:53:07;;;;;;;73.00;28.50;;;;;;;5.79;85.40;101342.72;5123926;27;20040;-66
2022/03/29 06:55:35;;;;;;;62.53;27.83;;;;;;;5.84;85.33;101343.56;5135338;27;20040;-66
2022/03/29 06:58:03;;;;;;;67.20;27.13;;;;;;;5.88;85.24;101347.91;5134307;27;20039;-65
2022/03/29 07:00:30;;;;;;;73.10;27.52;;;;;;;5.87;85.18;101344.41;5134735;27;20049;-65
2022/03/29 07:02:58;;;;;;;65.15;27.45;;;;;;;5.88;85.20;101342.69;5134122;27;20072;-65
2022/03/29 07:05:25;;;;;;;76.00;27.27;;;;;;;5.89;85.30;101347.06;5133832;27;20032;-65
2022/03/29 07:07:53;;;;;;;82.20;29.10;;;;;;;5.89;85.24;101342.66;5132720;27;20034;-65
2022/03/29 07:13:07;;;;;;;62.85;27.70;;;;;;;5.92;85.25;101339.16;5136256;27;20047;-66
2022/03/29 07:15:34;;;;;;;66.60;28.10;;;;;;;6.02;85.27;101340.06;5136300;27;20043;-66
2022/03/29 07:18:01;;;;;;;61.85;29.23;;;;;;;6.09;85.14;101344.38;5135809;27;20110;-66
2022/03/29 07:20:28;;;;;;;61.03;27.10;;;;;;;6.18;85.13;101341.72;5135504;27;20043;-65
2022/03/29 07:22:56;;;;;;;63.55;27.52;;;;;;;6.22;84.77;101337.34;5122429;27;20040;-66
2022/03/29 07:25:27;;;;;;;82.35;29.50;;;;;;;6.26;84.49;101340.84;5120629;27;20055;-65
2022/03/29 07:27:54;;;;;;;65.50;27.45;;;;;;;6.24;84.50;101337.38;5126895;27;20530;-67
2022/03/29 07:30:23;;;;;;;73.88;27.33;;;;;;;6.20;84.32;101339.13;5135300;27;20040;-66
2022/03/29 07:32:57;;;;;;;67.93;29.13;;;;;;;6.16;84.49;101340.00;5116520;27;20044;-66
2022/03/29 07:35:28;;;;;;;63.58;26.02;;;;;;;6.14;84.67;101334.78;5114331;27;20056;-67
2022/03/29 07:37:56;;;;;;;65.00;28.25;;;;;;;6.15;84.86;101333.91;5116165;27;20032;-66
2022/03/29 07:40:27;;;;;;;63.50;28.02;;;;;;;6.19;85.04;101342.63;5114205;27;20713;-66
2022/03/29 07:42:55;;;;;;;64.00;27.65;;;;;;;6.14;84.65;101342.63;5114781;27;20044;-66
2022/03/29 07:45:22;;;;;;;64.00;26.95;;;;;;;6.16;84.83;101346.09;5114410;28;20494;-66
2022/03/29 07:47:51;;;;;;;64.50;28.92;;;;;;;6.17;84.90;101332.13;5115798;27;20032;-65
2022/03/29 07:50:40;;;;;;;62.58;27.85;;;;;;;6.27;84.93;101339.94;5132251;27;20106;-64
2022/03/29 07:53:08;;;;;;;67.15;25.98;;;;;;;6.31;84.70;101328.59;5131032;27;20137;-67
2022/03/29 07:55:40;;;;;;;69.47;27.73;;;;;;;6.34;84.42;101328.59;5127371;27;20036;-65
2022/03/29 07:58:16;;;;;;;65.75;26.67;;;;;;;6.42;84.58;101323.28;5115283;27;20454;-66
2022/03/29 08:00:44;;;;;;;60.42;28.77;;;;;;;6.51;84.46;101324.13;5113681;27;20765;-66
2022/03/29 08:03:19;;;;;;;56.58;26.50;;;;;;;6.63;84.28;101322.31;5118332;27;20559;-66
2022/03/29 08:05:50;;;;;;;55.45;27.00;;;;;;;6.68;83.72;101318.78;5131675;27;20730;-66
2022/03/29 08:08:17;;;;;;;64.03;27.45;;;;;;;6.67;83.49;101319.66;5123333;27;20545;-66
2022/03/29 08:10:47;;;;;;;59.15;26.00;;;;;;;6.67;83.13;101324.91;5127525;27;20047;-66
2022/03/29 08:13:15;;;;;;;54.97;24.27;;;;;;;6.65;83.32;101325.78;5134667;27;20795;-66
2022/03/29 08:15:45;;;;;;;58.28;26.75;;;;;;;6.57;83.42;101324.94;5124856;27;20061;-66
2022/03/29 08:18:13;;;;;;;54.83;26.35;;;;;;;6.53;83.80;101334.56;5120736;27;20032;-66
2022/03/29 08:20:40;;;;;;;61.03;25.08;;;;;;;6.52;84.19;101325.88;5123280;27;20052;-66
2022/03/29 08:23:09;;;;;;;55.80;22.65;;;;;;;6.52;84.11;101323.25;5128413;27;20069;-66
2022/03/29 08:25:40;;;;;;;65.47;26.92;;;;;;;6.51;84.21;101318.88;5134324;27;20047;-66
2022/03/29 08:28:07;;;;;;;61.70;27.73;;;;;;;6.53;84.57;101313.63;5129227;27;20092;-66
2022/03/29 08:30:35;;;;;;;61.28;25.85;;;;;;;6.63;84.54;101322.31;5119534;27;20097;-66
2022/03/29 08:33:03;;;;;;;57.45;26.80;;;;;;;6.68;84.26;101323.13;5114006;27;20036;-66
2022/03/29 08:35:32;;;;;;;65.68;27.98;;;;;;;6.67;84.08;101313.53;5112984;27;20056;-66
2022/03/29 08:38:00;;;;;;;60.78;27.60;;;;;;;6.66;83.96;101311.81;5113837;27;20046;-67
2022/03/29 08:40:48;;;;;;;55.65;26.35;;;;;;;6.68;83.78;101310.03;5113539;27;20036;-67
2022/03/29 08:43:16;;;;;;;57.22;29.15;;;;;;;6.76;83.63;101310.00;5115069;27;20048;-66
2022/03/29 08:45:48;;;;;;;52.38;24.30;;;;;;;6.81;82.88;101306.47;5125843;27;20445;-66
2022/03/29 08:48:26;;;;;;;50.78;26.05;;;;;;;6.83;82.27;101304.69;5133732;27;20040;-66
2022/03/29 08:50:57;;;;;;;51.35;26.42;;;;;;;6.84;82.02;101306.44;5134379;27;20047;-66
2022/03/29 08:53:48;;;;;;;52.45;26.13;;;;;;;6.85;81.50;101302.06;5134014;27;20039;-67
2022/03/29 08:56:15;;;;;;;50.65;25.92;;;;;;;6.90;81.68;101299.41;5134267;27;20055;-66
2022/03/29 08:58:42;;;;;;;54.47;25.70;;;;;;;6.98;81.17;101302.81;5127600;27;20040;-66
2022/03/29 09:01:09;;;;;;;44.78;24.65;;;;;;;7.07;80.97;101296.66;5115022;27;20386;-67
2022/03/29 09:03:37;;;;;;;48.05;25.33;;;;;;;7.17;80.83;101293.06;5113386;27;20119;-67
2022/03/29 09:06:09;;;;;;;49.35;24.60;;;;;;;7.27;79.58;101304.38;5113748;28;20126;-67
2022/03/29 09:08:47;;;;;;;45.05;24.08;;;;;;;7.27;79.01;101299.13;5115291;27;20029;-67
2022/03/29 09:11:16;;;;;;;42.15;24.30;;;;;;;7.27;78.73;101309.59;5118188;28;20040;-64
2022/03/29 09:13:43;;;;;;;43.03;23.15;;;;;;;7.21;79.03;101307.91;5117321;28;20058;-67
2022/03/29 09:16:29;;;;;;;50.38;26.67;;;;;;;7.28;79.34;101306.97;5128330;27;20035;-67
2022/03/29 09:18:58;;;;;;;51.28;26.80;;;;;;;7.42;79.31;101304.19;5120050;27;20097;-67
2022/03/29 09:21:25;;;;;;;43.60;24.58;;;;;;;7.59;78.75;101305.78;5117441;27;20085;-67
2022/03/29 09:24:15;;;;;;;49.40;26.33;;;;;;;7.61;77.72;101299.66;5114915;27;20090;-67
2022/03/29 09:26:52;;;;;;;46.13;24.88;;;;;;;7.57;77.45;101303.19;5115036;27;20038;-67
2022/03/29 09:29:25;;;;;;;47.75;26.42;;;;;;;7.63;77.86;101311.88;5114631;27;20052;-67
2022/03/29 09:32:11;;;;;;;42.22;24.67;;;;;;;7.75;77.25;101303.84;5124048;27;20043;-67
2022/03/29 09:34:39;;;;;;;50.88;25.70;;;;;;;7.91;77.13;101304.53;5133516;27;20083;-67
2022/03/29 09:37:07;;;;;;;47.42;25.17;;;;;;;8.12;76.38;101299.91;5127940;27;20088;-67
2022/03/29 09:39:42;;;;;;;47.55;23.50;;;;;;;8.35;74.28;101295.25;5124270;27;20880;-66
2022/03/29 09:42:18;;;;;;;43.38;23.90;;;;;;;8.50;74.38;101288.94;5142207;27;20036;-67
2022/03/29 09:44:53;;;;;;;40.90;23.08;;;;;;;8.60;73.56;101294.91;5116602;27;20044;-67
2022/03/29 09:47:22;;;;;;;46.50;23.95;;;;;;;8.62;73.06;101289.66;5127528;27;20511;-67
2022/03/29 09:50:08;;;;;;;41.85;23.45;;;;;;;8.62;72.75;101295.75;5130758;27;20044;-66
2022/03/29 09:52:43;;;;;;;48.45;24.63;;;;;;;8.55;72.95;101281.84;5123424;27;20059;-67
2022/03/29 09:55:15;;;;;;;;;;;;;;;8.54;73.29;101287.13;5131323;27;20046;-67
2022/03/29 09:57:45;;;;;;;41.55;23.45;;;;;;;8.63;73.83;101283.50;5125336;27;20082;-66
2022/03/29 10:00:17;;;;;;;41.08;23.65;;;;;;;8.66;72.83;101286.94;5113448;27;20064;-67
2022/03/29 10:02:46;;;;;;;43.13;25.38;;;;;;;8.59;72.59;101289.69;5112641;27;20044;-67
2022/03/29 10:05:19;;;;;;;47.45;26.00;;;;;;;8.57;73.17;101284.47;5113353;27;20565;-68
2022/03/29 10:10:49;;;;;;;46.38;25.25;;;;;;;8.74;72.48;101280.69;5114473;27;20048;-67
2022/03/29 10:13:23;;;;;;;45.47;26.02;;;;;;;8.86;71.94;101277.88;5133084;27;20035;-67
2022/03/29 10:15:53;;;;;;;47.15;26.88;;;;;;;9.05;71.54;101272.31;5126993;27;20048;-67
2022/03/29 10:18:25;;;;;;;51.22;26.48;;;;;;;9.26;71.31;101268.47;5112458;27;20040;-67
2022/03/29 10:20:54;;;;;;;48.53;25.92;;;;;;;9.38;70.26;101270.84;5115466;27;20079;-67
2022/03/29 10:23:24;;;;;;;47.65;26.38;;;;;;;9.41;70.01;101269.94;5116139;28;20040;-67
2022/03/29 10:25:54;;;;;;;46.28;25.98;;;;;;;9.34;69.56;101269.19;5124306;27;20043;-66
2022/03/29 10:28:29;;;;;;;46.42;25.13;;;;;;;9.25;69.54;101270.19;5115887;27;20047;-68
2022/03/29 10:30:58;;;;;;;48.38;26.67;;;;;;;9.12;69.77;101276.56;5118236;27;20044;-68
2022/03/29 10:33:31;;;;;;;46.55;25.52;;;;;;;8.99;70.17;101275.91;5136322;27;20036;-67
2022/03/29 10:35:59;;;;;;;49.65;26.75;;;;;;;8.97;70.66;101275.06;5134500;27;20055;-67
2022/03/29 10:38:47;;;;;;;46.83;24.95;;;;;;;9.06;70.03;101268.78;5134908;27;20046;-67
2022/03/29 10:41:29;;;;;;;55.25;33.58;;;;;;;9.25;69.95;101267.56;5116660;27;20036;-66
2022/03/29 10:44:05;;;;;;;49.78;26.92;;;;;;;9.64;69.27;101261.59;5118392;27;20047;-67
2022/03/29 10:46:41;;;;;;;46.08;25.90;;;;;;;10.05;68.86;101256.38;5122233;27;20043;-67
2022/03/29 10:49:28;;;;;;;48.35;27.25;;;;;;;10.43;66.63;101249.38;5132050;27;20075;-67
2022/03/29 10:52:05;;;;;;;48.45;26.63;;;;;;;10.69;64.99;101240.88;5136354;27;20036;-67
2022/03/29 10:54:42;;;;;;;43.85;24.95;;;;;;;10.97;64.50;101249.88;5136633;27;20067;-67
2022/03/29 10:57:31;;;;;;;42.50;23.98;;;;;;;11.23;62.31;101235.16;5136377;27;20050;-68
2022/03/29 11:00:07;;;;;;;45.15;25.83;;;;;;;11.40;61.41;101234.66;5132031;27;20042;-67
2022/03/29 11:02:36;;;;;;;45.13;25.77;;;;;;;11.62;61.91;101225.25;5136418;27;20089;-68
2022/03/29 11:05:09;;;;;;;43.83;24.95;;;;;;;12.01;60.81;101226.81;5124972;27;20821;-67
2022/03/29 11:07:38;;;;;;;45.72;26.63;;;;;;;12.20;59.61;101223.59;5128314;27;20089;-68
2022/03/29 11:10:16;;;;;;;48.28;26.75;;;;;;;12.24;59.58;101223.44;5115313;27;20097;-68
2022/03/29 11:12:52;;;;;;;44.08;25.10;;;;;;;12.25;58.99;101217.25;5126547;27;20074;-67
2022/03/29 11:15:25;;;;;;;49.05;26.42;;;;;;;12.10;58.92;101210.66;5136249;27;20031;-67
2022/03/29 11:17:56;;;;;;;45.05;24.15;;;;;;;11.98;58.68;101211.03;5134578;27;20050;-67
2022/03/29 11:20:33;;;;;;;44.50;25.83;;;;;;;11.83;59.23;101199.13;5135931;27;20497;-67
2022/03/29 11:23:04;;;;;;;46.53;27.15;;;;;;;11.70;60.02;101203.06;5135219;27;20051;-67
2022/03/29 11:25:43;;;;;;;44.95;26.15;;;;;;;11.69;59.99;101204.81;5134096;27;20513;-67
2022/03/29 11:28:13;;;;;;;45.80;25.45;;;;;;;11.61;59.51;101194.47;5133998;27;20035;-67
2022/03/29 11:30:42;;;;;;;41.70;25.63;;;;;;;11.56;60.05;101200.78;5134889;27;20051;-68
2022/03/29 11:33:11;;;;;;;46.47;26.77;;;;;;;11.60;60.36;101191.88;5120071;27;20048;-67
2022/03/29 11:35:40;;;;;;;44.33;24.20;;;;;;;11.64;59.02;101191.75;5115253;28;20110;-67
2022/03/29 11:38:13;;;;;;;45.33;25.20;;;;;;;11.58;59.61;101183.13;5114886;28;20150;-67